createdAt,value
2022-10-13T00:04:27.570Z,13.00
2022-10-13T00:11:16.121Z,14.15
2022-10-13T00:18:01.831Z,13.35
2022-10-13T00:24:54.493Z,14.13
2022-10-13T00:31:39.974Z,14.07
2022-10-13T00:38:26.469Z,13.38
2022-10-13T00:45:25.645Z,14.07
2022-10-13T00:52:11.065Z,13.95
2022-10-13T00:58:58.813Z,14.85
2022-10-13T01:05:47.035Z,15.43
2022-10-13T01:12:46.565Z,14.75
2022-10-13T01:20:11.903Z,14.65
2022-10-13T01:27:22.668Z,14.45
2022-10-13T01:34:21.392Z,14.90
2022-10-13T01:41:16.429Z,13.73
2022-10-13T01:48:05.966Z,14.80
2022-10-13T01:54:59.746Z,17.27
2022-10-13T02:02:00.129Z,15.93
2022-10-13T02:08:56.651Z,15.15
2022-10-13T02:15:50.576Z,16.13
2022-10-13T02:22:49.943Z,15.10
2022-10-13T02:29:35.522Z,15.73
2022-10-13T02:36:23.468Z,15.82
2022-10-13T02:43:09.092Z,15.65
2022-10-13T03:03:46.153Z,14.65
2022-10-13T03:10:32.137Z,13.68
2022-10-13T03:17:17.570Z,15.50
2022-10-13T03:24:05.623Z,15.18
2022-10-13T03:30:50.974Z,15.23
2022-10-13T03:37:36.311Z,16.20
2022-10-13T03:44:24.325Z,15.38
2022-10-13T03:51:11.588Z,16.30
2022-10-13T03:58:03.377Z,16.08
2022-10-13T04:04:51.375Z,16.15
2022-10-13T04:11:36.899Z,15.82
2022-10-13T04:18:22.272Z,15.07
2022-10-13T04:25:13.613Z,14.63
2022-10-13T04:31:58.972Z,14.50
2022-10-13T04:38:44.656Z,14.50
2022-10-13T04:45:32.868Z,15.15
2022-10-13T04:52:18.502Z,14.57
2022-10-13T04:59:05.949Z,15.65
2022-10-13T05:05:54.405Z,14.95
2022-10-13T05:12:39.831Z,15.70
2022-10-13T05:19:25.249Z,16.25
2022-10-13T05:26:15.449Z,14.90
2022-10-13T05:33:00.839Z,15.48
2022-10-13T05:39:48.856Z,16.60
2022-10-13T05:46:37.277Z,15.82
2022-10-13T05:53:22.954Z,14.73
2022-10-13T06:00:12.874Z,15.77
2022-10-13T06:07:02.113Z,16.65
2022-10-13T06:13:47.482Z,18.33
2022-10-13T06:20:32.882Z,26.88
2022-10-13T06:27:20.862Z,25.00
2022-10-13T06:34:08.568Z,18.33
2022-10-13T06:40:53.981Z,20.43
2022-10-13T06:47:44.356Z,17.63
2022-10-13T06:54:30.689Z,16.67
2022-10-13T07:01:16.456Z,17.25
2022-10-13T07:08:04.368Z,17.75
2022-10-13T07:14:50.003Z,17.48
2022-10-13T07:21:35.752Z,17.48
2022-10-13T07:28:24.064Z,17.77
2022-10-13T07:35:10.102Z,17.70
2022-10-13T07:41:55.625Z,18.37
2022-10-13T07:48:44.256Z,18.38
2022-10-13T07:55:30.171Z,19.15
2022-10-13T08:02:15.659Z,18.93
2022-10-13T08:09:04.335Z,18.98
2022-10-13T08:15:49.817Z,18.95
2022-10-13T08:22:35.886Z,19.65
2022-10-13T08:29:24.467Z,18.67
2022-10-13T08:36:10.997Z,21.25
2022-10-13T08:43:00.204Z,20.48
2022-10-13T08:49:48.912Z,20.60
2022-10-13T08:56:37.732Z,20.50
2022-10-13T09:03:28.360Z,20.77
2022-10-13T09:10:18.843Z,21.40
2022-10-13T09:17:20.002Z,21.17
2022-10-13T09:24:11.452Z,21.48
2022-10-13T09:31:13.172Z,23.38
2022-10-13T09:38:07.277Z,24.08
2022-10-13T09:45:00.910Z,23.88
2022-10-13T09:51:51.856Z,24.38
2022-10-13T09:58:40.630Z,24.40
2022-10-13T10:05:30.544Z,24.08
2022-10-13T10:12:27.583Z,24.45
2022-10-13T10:19:23.439Z,23.35
2022-10-13T10:26:19.406Z,23.50
2022-10-13T10:33:19.278Z,23.95
2022-10-13T10:40:19.288Z,23.47
2022-10-13T10:47:08.718Z,24.65
2022-10-13T10:54:09.476Z,24.65
2022-10-13T11:01:03.152Z,25.05
2022-10-13T11:08:03.157Z,23.17
2022-10-13T11:15:06.090Z,23.60
2022-10-13T11:22:27.913Z,23.10
2022-10-13T11:29:22.599Z,21.15
2022-10-13T11:36:50.680Z,21.02
2022-10-13T11:43:49.612Z,20.60
2022-10-13T11:50:44.932Z,18.88
2022-10-13T11:57:33.741Z,20.83
2022-10-13T12:04:25.884Z,19.40
2022-10-13T12:11:18.133Z,19.67
2022-10-13T12:18:23.552Z,18.75
2022-10-13T12:25:18.488Z,19.00
2022-10-13T12:32:05.982Z,18.00
2022-10-13T12:38:57.165Z,18.38
2022-10-13T12:45:44.424Z,18.65
2022-10-13T12:52:30.687Z,18.42
2022-10-13T12:59:23.724Z,19.42
2022-10-13T13:06:36.904Z,18.05
2022-10-13T13:13:27.212Z,18.27
2022-10-13T13:20:30.032Z,17.80
2022-10-13T13:27:23.089Z,16.80
2022-10-13T13:34:08.572Z,18.30
2022-10-13T13:41:00.112Z,18.52
2022-10-13T13:47:49.320Z,18.08
2022-10-13T13:54:34.669Z,19.80
2022-10-13T14:01:29.784Z,19.35
2022-10-13T14:08:16.258Z,19.73
2022-10-13T14:15:04.028Z,20.00
2022-10-13T14:21:51.988Z,20.17
2022-10-13T14:28:37.827Z,19.77
2022-10-13T14:35:23.316Z,20.85
2022-10-13T14:42:11.321Z,18.57
2022-10-13T14:48:59.076Z,20.30
2022-10-13T14:55:45.322Z,19.85
2022-10-13T15:02:33.769Z,21.17
2022-10-13T15:09:21.044Z,22.77
2022-10-13T15:16:18.265Z,22.55
2022-10-13T15:23:06.269Z,21.25
2022-10-13T15:29:51.665Z,21.27
2022-10-13T15:36:37.072Z,20.73
2022-10-13T15:43:25.034Z,19.83
2022-10-13T15:50:12.017Z,20.23
2022-10-13T15:56:57.462Z,20.70
2022-10-13T16:03:45.905Z,18.60
2022-10-13T16:10:31.661Z,18.67
2022-10-13T16:17:17.041Z,19.40
2022-10-13T16:24:05.535Z,18.30
2022-10-13T16:30:50.900Z,20.10
2022-10-13T16:37:36.333Z,19.03
2022-10-13T16:44:24.338Z,19.07
2022-10-13T16:51:12.344Z,18.88
2022-10-13T16:57:57.761Z,19.95
2022-10-13T17:04:46.044Z,17.87
2022-10-13T17:11:33.626Z,20.38
2022-10-13T17:18:19.008Z,19.35
2022-10-13T17:25:07.609Z,19.07
2022-10-13T17:31:53.033Z,20.25
2022-10-13T17:38:40.871Z,18.40
2022-10-13T17:45:29.125Z,19.25
2022-10-13T17:52:14.705Z,18.85
2022-10-13T17:59:00.434Z,18.77
2022-10-13T18:05:49.197Z,17.88
2022-10-13T18:12:34.650Z,19.00
2022-10-13T18:19:20.746Z,20.03
2022-10-13T18:26:12.364Z,20.52
2022-10-13T18:32:57.777Z,20.63
2022-10-13T18:39:44.454Z,20.67
2022-10-13T18:46:32.629Z,20.45
2022-10-13T18:53:18.569Z,20.80
2022-10-13T19:00:06.115Z,21.33
2022-10-13T19:06:54.251Z,20.08
2022-10-13T19:13:39.897Z,19.88
2022-10-13T19:20:25.241Z,13.70
2022-10-13T19:27:14.096Z,14.15
2022-10-13T19:34:00.012Z,13.25
2022-10-13T19:40:46.793Z,13.50
2022-10-13T19:47:34.911Z,14.15
2022-10-13T19:54:22.663Z,13.48
2022-10-13T20:01:10.420Z,10.88
2022-10-13T20:07:58.623Z,10.82
2022-10-13T20:14:44.116Z,12.80
2022-10-13T20:21:31.300Z,13.48
2022-10-13T20:28:19.269Z,14.02
2022-10-13T20:35:04.796Z,13.45
2022-10-13T20:41:50.180Z,12.57
2022-10-13T20:49:08.784Z,12.20
2022-10-13T20:55:47.740Z,12.73
2022-10-13T21:02:33.101Z,11.98
2022-10-13T21:09:21.200Z,12.40
2022-10-13T21:16:11.125Z,11.88
2022-10-13T21:22:56.473Z,12.15
2022-10-13T21:29:44.466Z,12.93
2022-10-13T21:36:32.345Z,13.77
2022-10-13T21:43:17.761Z,15.13
2022-10-13T21:50:07.583Z,16.30
2022-10-13T21:56:52.905Z,14.18
2022-10-13T22:03:38.691Z,15.50
2022-10-13T22:10:26.662Z,15.60
2022-10-13T22:17:13.033Z,16.52
2022-10-13T22:24:01.958Z,16.95
2022-10-13T22:30:49.970Z,15.82
2022-10-13T22:37:35.402Z,16.50
2022-10-13T22:44:20.748Z,17.15
2022-10-13T22:51:10.587Z,17.60
2022-10-13T22:57:56.439Z,17.40
2022-10-13T23:04:41.929Z,17.03
2022-10-13T23:11:30.454Z,16.23
2022-10-13T23:18:15.833Z,15.88
2022-10-13T23:25:02.664Z,16.08
2022-10-13T23:31:50.553Z,15.52
2022-10-13T23:38:37.223Z,14.90
2022-10-13T23:52:11.198Z,16.02
2022-10-13T23:58:56.675Z,16.27
